CET,Max TemperatureF,Mean TemperatureF,Min TemperatureF,Max Dew PointF,MeanDew PointF,Min DewpointF,Max Humidity, Mean Humidity, Min Humidity, Max Sea Level PressureIn, Mean Sea Level PressureIn, Min Sea Level PressureIn, Max VisibilityMiles, Mean VisibilityMiles, Min VisibilityMiles, Max Wind SpeedMPH, Mean Wind SpeedMPH, Max Gust SpeedMPH,PrecipitationIn, CloudCover, Events, WindDirDegrees
2013-2-1,43,39,35,36,34,30,93,81,61,29.86,29.65,29.27,16,6,6,23,15,30,0.04,4,Rain,213
2013-2-2,38,34,28,37,31,19,100,83,64,29.71,29.38,29.15,16,6,5,23,10,,0.00,5,Rain,277
2013-2-3,36,30,24,30,24,20,93,74,47,29.96,29.84,29.71,19,6,2,25,11,,0.00,5,Snow,264
2013-2-4,39,34,30,36,32,28,100,89,82,29.82,29.73,29.68,19,6,1,29,22,,0.00,6,Rain-Snow,233
2013-2-5,45,39,33,36,32,28,93,80,57,29.82,29.58,29.44,19,7,6,23,14,34,0.00,4,Rain,222
2013-2-6,38,31,24,28,24,19,87,72,47,29.58,29.49,29.44,6,6,6,16,8,,0.00,2,Snow,234
2013-2-7,35,30,26,28,26,23,93,85,60,29.83,29.68,29.56,12,6,1,12,4,,0.01,5,Snow,263
2013-2-8,35,28,22,27,24,19,100,83,54,29.93,29.83,29.77,16,6,1,12,6,,0.00,4,Snow,264
2013-2-9,29,26,24,25,23,19,93,83,62,30.09,29.96,29.89,16,6,3,7,3,,0.00,7,Snow,330
2013-2-10,31,26,21,23,20,16,93,76,54,30.09,29.96,29.86,19,6,4,12,4,,0.00,6,Snow,360
2013-2-11,27,22,18,21,19,15,93,77,51,29.93,29.76,29.71,19,6,4,15,10,,0.00,7,,102
2013-2-12,28,27,26,27,24,21,100,88,69,29.90,29.76,29.68,7,3,0,16,11,,0.08,8,Fog-Snow,63
2013-2-13,29,28,26,27,24,23,100,89,71,30.32,30.09,29.89,6,4,1,10,6,,0.00,8,Snow,321
2013-2-14,29,28,26,27,24,23,93,87,79,30.35,30.19,30.06,5,4,2,8,5,,0.00,8,,347
2013-2-15,33,30,28,30,28,26,100,92,81,30.16,30.05,30.01,5,3,1,7,3,,0.00,8,Snow,212
2013-2-16,34,31,28,30,28,27,93,89,75,30.27,30.17,30.12,4,2,1,7,4,,0.01,7,Snow,206
2013-2-17,33,32,30,30,30,28,100,95,81,30.28,30.20,30.18,3,1,0,6,3,,0.01,8,Fog-Rain-Snow,61
2013-2-18,33,31,29,30,28,25,100,90,67,30.25,30.12,30.04,7,4,1,6,3,,0.00,8,,320
2013-2-19,31,30,28,30,28,25,100,88,75,30.11,29.88,29.77,6,4,1,20,12,,0.04,7,Snow,258
2013-2-20,29,25,21,25,23,19,93,87,74,30.17,30.02,29.92,6,5,0,15,10,,0.00,6,Snow,306
2013-2-21,24,20,17,21,19,18,100,88,71,30.19,30.07,30.04,6,4,1,11,6,,0.00,6,Snow,342
2013-2-22,23,20,18,21,18,14,93,87,74,30.12,29.90,29.83,6,3,1,14,9,,0.04,7,Snow,28
2013-2-23,27,24,21,27,23,19,100,93,86,29.91,29.76,29.68,5,2,0,14,8,,0.20,8,Fog-Snow,349
2013-2-24,35,29,23,32,29,23,100,92,77,29.96,29.82,29.71,6,2,0,10,4,,0.08,7,Fog-Rain-Snow,337
2013-2-25,38,34,31,37,34,32,100,97,93,30.22,30.04,29.89,3,1,0,12,5,,0.03,8,Fog-Rain,57
2013-2-26,36,34,32,36,33,30,100,95,87,30.38,30.27,30.21,6,2,0,14,7,,0.00,8,Fog,343
2013-2-27,34,32,30,32,31,30,100,96,91,30.45,30.36,30.33,6,4,1,10,8,,0.00,8,Fog-Rain,344
2013-2-28,36,34,31,34,31,28,100,90,73,30.44,30.29,30.18,6,3,0,7,4,,0.00,8,Fog,340